sensor_id;sensor_type;location;lat;lon;timestamp;temperature;humidity
78522;SHT31;67819;51.972;5.678;2024-01-11T00:00:04;-1.3;53.3
78522;SHT31;67819;51.972;5.678;2024-01-11T00:02:33;-1.3;53.4
78522;SHT31;67819;51.972;5.678;2024-01-11T00:05:02;-1.3;53.6
78522;SHT31;67819;51.972;5.678;2024-01-11T00:07:31;-1.3;53.5
78522;SHT31;67819;51.972;5.678;2024-01-11T00:10:00;-1.3;53.5
78522;SHT31;67819;51.972;5.678;2024-01-11T00:12:29;-1.3;53.5
78522;SHT31;67819;51.972;5.678;2024-01-11T00:14:58;-1.3;53.3
78522;SHT31;67819;51.972;5.678;2024-01-11T00:17:27;-1.3;53.3
78522;SHT31;67819;51.972;5.678;2024-01-11T00:19:55;-1.3;53.2
78522;SHT31;67819;51.972;5.678;2024-01-11T00:22:24;-1.4;53.6
78522;SHT31;67819;51.972;5.678;2024-01-11T00:24:53;-1.4;53.7
78522;SHT31;67819;51.972;5.678;2024-01-11T00:27:21;-1.5;53.8
78522;SHT31;67819;51.972;5.678;2024-01-11T00:29:50;-1.5;54.2
78522;SHT31;67819;51.972;5.678;2024-01-11T00:32:18;-1.5;53.9
78522;SHT31;67819;51.972;5.678;2024-01-11T00:34:47;-1.5;53.9
78522;SHT31;67819;51.972;5.678;2024-01-11T00:37:16;-1.5;54.2
78522;SHT31;67819;51.972;5.678;2024-01-11T00:39:45;-1.6;54.4
78522;SHT31;67819;51.972;5.678;2024-01-11T00:42:14;-1.6;54.2
78522;SHT31;67819;51.972;5.678;2024-01-11T00:44:42;-1.6;54.3
78522;SHT31;67819;51.972;5.678;2024-01-11T00:47:11;-1.7;54.5
78522;SHT31;67819;51.972;5.678;2024-01-11T00:49:40;-1.7;54.9
78522;SHT31;67819;51.972;5.678;2024-01-11T00:52:09;-1.7;55.2
78522;SHT31;67819;51.972;5.678;2024-01-11T00:54:40;-1.7;55.0
78522;SHT31;67819;51.972;5.678;2024-01-11T00:57:09;-1.8;55.0
78522;SHT31;67819;51.972;5.678;2024-01-11T00:59:37;-1.8;55.1
78522;SHT31;67819;51.972;5.678;2024-01-11T01:02:08;-1.8;55.2
78522;SHT31;67819;51.972;5.678;2024-01-11T01:04:39;-1.9;55.4
78522;SHT31;67819;51.972;5.678;2024-01-11T01:07:08;-1.9;55.6
78522;SHT31;67819;51.972;5.678;2024-01-11T01:09:36;-2.0;55.8
78522;SHT31;67819;51.972;5.678;2024-01-11T01:12:06;-2.0;55.8
78522;SHT31;67819;51.972;5.678;2024-01-11T01:14:35;-2.0;56.0
78522;SHT31;67819;51.972;5.678;2024-01-11T01:17:04;-2.0;56.2
78522;SHT31;67819;51.972;5.678;2024-01-11T01:19:32;-2.0;56.3
78522;SHT31;67819;51.972;5.678;2024-01-11T01:22:01;-2.0;56.3
78522;SHT31;67819;51.972;5.678;2024-01-11T01:24:30;-2.0;56.2
78522;SHT31;67819;51.972;5.678;2024-01-11T01:26:59;-2.0;56.2
78522;SHT31;67819;51.972;5.678;2024-01-11T01:29:28;-2.0;56.5
78522;SHT31;67819;51.972;5.678;2024-01-11T01:31:56;-2.0;56.7
78522;SHT31;67819;51.972;5.678;2024-01-11T01:34:25;-2.1;56.5
78522;SHT31;67819;51.972;5.678;2024-01-11T01:36:53;-2.1;56.6
78522;SHT31;67819;51.972;5.678;2024-01-11T01:39:21;-2.1;56.6
78522;SHT31;67819;51.972;5.678;2024-01-11T01:41:50;-2.1;56.7
78522;SHT31;67819;51.972;5.678;2024-01-11T01:44:19;-2.1;56.9
78522;SHT31;67819;51.972;5.678;2024-01-11T01:46:51;-2.1;57.0
78522;SHT31;67819;51.972;5.678;2024-01-11T01:49:20;-2.2;57.2
78522;SHT31;67819;51.972;5.678;2024-01-11T01:51:50;-2.2;57.3
78522;SHT31;67819;51.972;5.678;2024-01-11T01:54:20;-2.2;57.4
78522;SHT31;67819;51.972;5.678;2024-01-11T01:56:50;-2.2;57.4
78522;SHT31;67819;51.972;5.678;2024-01-11T01:59:21;-2.2;57.4
78522;SHT31;67819;51.972;5.678;2024-01-11T02:01:50;-2.2;57.8
78522;SHT31;67819;51.972;5.678;2024-01-11T02:04:20;-2.2;57.8
78522;SHT31;67819;51.972;5.678;2024-01-11T02:06:50;-2.2;58.0
78522;SHT31;67819;51.972;5.678;2024-01-11T02:09:20;-2.2;58.0
78522;SHT31;67819;51.972;5.678;2024-01-11T02:11:50;-2.2;58.0
78522;SHT31;67819;51.972;5.678;2024-01-11T02:14:22;-2.2;58.1
78522;SHT31;67819;51.972;5.678;2024-01-11T02:16:52;-2.2;58.1
78522;SHT31;67819;51.972;5.678;2024-01-11T02:19:21;-2.2;58.2
78522;SHT31;67819;51.972;5.678;2024-01-11T02:21:53;-2.2;58.1
78522;SHT31;67819;51.972;5.678;2024-01-11T02:24:23;-2.2;58.2
78522;SHT31;67819;51.972;5.678;2024-01-11T02:27:02;-2.2;58.1
78522;SHT31;67819;51.972;5.678;2024-01-11T02:29:31;-2.3;58.1
78522;SHT31;67819;51.972;5.678;2024-01-11T02:32:02;-2.3;58.3
78522;SHT31;67819;51.972;5.678;2024-01-11T02:34:33;-2.4;58.5
78522;SHT31;67819;51.972;5.678;2024-01-11T02:37:04;-2.4;58.9
78522;SHT31;67819;51.972;5.678;2024-01-11T02:39:33;-2.5;59.1
78522;SHT31;67819;51.972;5.678;2024-01-11T02:42:02;-2.5;59.4
78522;SHT31;67819;51.972;5.678;2024-01-11T02:44:31;-2.6;59.8
78522;SHT31;67819;51.972;5.678;2024-01-11T02:47:00;-2.6;59.8
78522;SHT31;67819;51.972;5.678;2024-01-11T02:49:28;-2.6;60.1
78522;SHT31;67819;51.972;5.678;2024-01-11T02:51:57;-2.6;60.3
78522;SHT31;67819;51.972;5.678;2024-01-11T02:54:25;-2.6;60.3
78522;SHT31;67819;51.972;5.678;2024-01-11T02:56:54;-2.6;60.3
78522;SHT31;67819;51.972;5.678;2024-01-11T02:59:23;-2.6;60.3
78522;SHT31;67819;51.972;5.678;2024-01-11T03:01:54;-2.6;60.4
78522;SHT31;67819;51.972;5.678;2024-01-11T03:04:22;-2.7;60.5
78522;SHT31;67819;51.972;5.678;2024-01-11T03:06:51;-2.7;60.7
78522;SHT31;67819;51.972;5.678;2024-01-11T03:09:19;-2.6;60.6
78522;SHT31;67819;51.972;5.678;2024-01-11T03:11:48;-2.6;60.6
78522;SHT31;67819;51.972;5.678;2024-01-11T03:14:16;-2.6;60.5
78522;SHT31;67819;51.972;5.678;2024-01-11T03:16:45;-2.6;60.4
78522;SHT31;67819;51.972;5.678;2024-01-11T03:19:13;-2.6;60.4
78522;SHT31;67819;51.972;5.678;2024-01-11T03:21:43;-2.7;60.5
78522;SHT31;67819;51.972;5.678;2024-01-11T03:24:13;-2.7;60.6
78522;SHT31;67819;51.972;5.678;2024-01-11T03:26:41;-2.7;60.7
78522;SHT31;67819;51.972;5.678;2024-01-11T03:29:10;-2.7;60.8
78522;SHT31;67819;51.972;5.678;2024-01-11T03:31:38;-2.7;60.8
78522;SHT31;67819;51.972;5.678;2024-01-11T03:34:09;-2.8;61.0
78522;SHT31;67819;51.972;5.678;2024-01-11T03:36:38;-2.8;61.2
78522;SHT31;67819;51.972;5.678;2024-01-11T03:39:06;-2.8;61.4
78522;SHT31;67819;51.972;5.678;2024-01-11T03:41:35;-2.9;61.6
78522;SHT31;67819;51.972;5.678;2024-01-11T03:44:03;-2.9;61.6
78522;SHT31;67819;51.972;5.678;2024-01-11T03:46:32;-2.9;61.8
78522;SHT31;67819;51.972;5.678;2024-01-11T03:49:00;-2.9;61.9
78522;SHT31;67819;51.972;5.678;2024-01-11T03:51:29;-2.9;62.1
78522;SHT31;67819;51.972;5.678;2024-01-11T03:53:57;-2.9;61.8
78522;SHT31;67819;51.972;5.678;2024-01-11T03:56:26;-2.8;61.8
78522;SHT31;67819;51.972;5.678;2024-01-11T03:58:55;-2.8;61.8
78522;SHT31;67819;51.972;5.678;2024-01-11T04:01:23;-2.8;62.3
78522;SHT31;67819;51.972;5.678;2024-01-11T04:03:52;-2.7;61.8
78522;SHT31;67819;51.972;5.678;2024-01-11T04:06:21;-2.7;61.5
78522;SHT31;67819;51.972;5.678;2024-01-11T04:08:50;-2.6;61.3
78522;SHT31;67819;51.972;5.678;2024-01-11T04:11:19;-2.5;60.8
78522;SHT31;67819;51.972;5.678;2024-01-11T04:13:48;-2.5;60.6
78522;SHT31;67819;51.972;5.678;2024-01-11T04:16:17;-2.5;60.8
78522;SHT31;67819;51.972;5.678;2024-01-11T04:18:46;-2.6;61.0
78522;SHT31;67819;51.972;5.678;2024-01-11T04:21:22;-2.6;61.2
78522;SHT31;67819;51.972;5.678;2024-01-11T04:23:51;-2.7;61.4
78522;SHT31;67819;51.972;5.678;2024-01-11T04:26:19;-2.8;61.8
78522;SHT31;67819;51.972;5.678;2024-01-11T04:28:49;-2.8;62.1
78522;SHT31;67819;51.972;5.678;2024-01-11T04:31:18;-2.9;62.3
78522;SHT31;67819;51.972;5.678;2024-01-11T04:33:49;-3.0;62.6
78522;SHT31;67819;51.972;5.678;2024-01-11T04:36:19;-3.0;62.9
78522;SHT31;67819;51.972;5.678;2024-01-11T04:38:50;-3.1;63.2
78522;SHT31;67819;51.972;5.678;2024-01-11T04:41:18;-3.2;63.6
78522;SHT31;67819;51.972;5.678;2024-01-11T04:43:47;-3.2;63.8
78522;SHT31;67819;51.972;5.678;2024-01-11T04:46:18;-3.2;64.1
78522;SHT31;67819;51.972;5.678;2024-01-11T04:48:47;-3.3;64.3
78522;SHT31;67819;51.972;5.678;2024-01-11T04:51:18;-3.3;64.4
78522;SHT31;67819;51.972;5.678;2024-01-11T04:53:46;-3.3;64.8
78522;SHT31;67819;51.972;5.678;2024-01-11T04:56:16;-3.4;65.1
78522;SHT31;67819;51.972;5.678;2024-01-11T04:58:45;-3.4;65.3
78522;SHT31;67819;51.972;5.678;2024-01-11T05:01:15;-3.5;65.5
78522;SHT31;67819;51.972;5.678;2024-01-11T05:03:45;-3.5;65.7
78522;SHT31;67819;51.972;5.678;2024-01-11T05:06:17;-3.5;65.8
78522;SHT31;67819;51.972;5.678;2024-01-11T05:08:49;-3.5;65.7
78522;SHT31;67819;51.972;5.678;2024-01-11T05:11:20;-3.5;65.7
78522;SHT31;67819;51.972;5.678;2024-01-11T05:13:51;-3.4;65.7
78522;SHT31;67819;51.972;5.678;2024-01-11T05:16:22;-3.4;65.8
78522;SHT31;67819;51.972;5.678;2024-01-11T05:18:51;-3.4;65.8
78522;SHT31;67819;51.972;5.678;2024-01-11T05:21:19;-3.4;65.6
78522;SHT31;67819;51.972;5.678;2024-01-11T05:23:49;-3.4;65.4
78522;SHT31;67819;51.972;5.678;2024-01-11T05:26:19;-3.3;65.5
78522;SHT31;67819;51.972;5.678;2024-01-11T05:28:48;-3.3;65.7
78522;SHT31;67819;51.972;5.678;2024-01-11T05:31:17;-3.2;65.2
78522;SHT31;67819;51.972;5.678;2024-01-11T05:33:45;-3.2;65.0
78522;SHT31;67819;51.972;5.678;2024-01-11T05:36:14;-3.3;65.1
78522;SHT31;67819;51.972;5.678;2024-01-11T05:38:44;-3.3;65.1
78522;SHT31;67819;51.972;5.678;2024-01-11T05:41:13;-3.3;65.3
78522;SHT31;67819;51.972;5.678;2024-01-11T05:43:41;-3.3;65.6
78522;SHT31;67819;51.972;5.678;2024-01-11T05:46:10;-3.3;65.9
78522;SHT31;67819;51.972;5.678;2024-01-11T05:48:41;-3.3;65.7
78522;SHT31;67819;51.972;5.678;2024-01-11T05:51:10;-3.3;65.6
78522;SHT31;67819;51.972;5.678;2024-01-11T05:53:38;-3.2;65.3
78522;SHT31;67819;51.972;5.678;2024-01-11T05:56:10;-3.2;65.1
78522;SHT31;67819;51.972;5.678;2024-01-11T05:58:39;-3.2;65.1
78522;SHT31;67819;51.972;5.678;2024-01-11T06:01:08;-3.1;65.1
78522;SHT31;67819;51.972;5.678;2024-01-11T06:03:36;-3.0;65.1
78522;SHT31;67819;51.972;5.678;2024-01-11T06:06:06;-3.0;64.9
78522;SHT31;67819;51.972;5.678;2024-01-11T06:08:35;-2.9;63.9
78522;SHT31;67819;51.972;5.678;2024-01-11T06:11:04;-2.8;64.3
78522;SHT31;67819;51.972;5.678;2024-01-11T06:13:34;-2.7;63.9
78522;SHT31;67819;51.972;5.678;2024-01-11T06:16:02;-2.7;63.7
78522;SHT31;67819;51.972;5.678;2024-01-11T06:18:31;-2.6;62.7
78522;SHT31;67819;51.972;5.678;2024-01-11T06:21:00;-2.5;62.6
78522;SHT31;67819;51.972;5.678;2024-01-11T06:23:28;-2.5;62.8
78522;SHT31;67819;51.972;5.678;2024-01-11T06:25:57;-2.5;62.5
78522;SHT31;67819;51.972;5.678;2024-01-11T06:28:26;-2.4;61.9
78522;SHT31;67819;51.972;5.678;2024-01-11T06:30:54;-2.4;61.7
78522;SHT31;67819;51.972;5.678;2024-01-11T06:33:23;-2.5;61.8
78522;SHT31;67819;51.972;5.678;2024-01-11T06:35:51;-2.8;62.5
78522;SHT31;67819;51.972;5.678;2024-01-11T06:38:20;-3.0;63.4
78522;SHT31;67819;51.972;5.678;2024-01-11T06:40:48;-3.1;64.2
78522;SHT31;67819;51.972;5.678;2024-01-11T06:43:17;-3.2;64.5
78522;SHT31;67819;51.972;5.678;2024-01-11T06:45:45;-3.2;64.9
78522;SHT31;67819;51.972;5.678;2024-01-11T06:48:14;-3.3;65.2
78522;SHT31;67819;51.972;5.678;2024-01-11T06:50:43;-3.4;65.6
78522;SHT31;67819;51.972;5.678;2024-01-11T06:53:11;-3.4;65.8
78522;SHT31;67819;51.972;5.678;2024-01-11T06:55:40;-3.5;66.1
78522;SHT31;67819;51.972;5.678;2024-01-11T06:58:10;-3.5;66.2
78522;SHT31;67819;51.972;5.678;2024-01-11T07:00:38;-3.5;66.2
78522;SHT31;67819;51.972;5.678;2024-01-11T07:03:09;-3.5;66.4
78522;SHT31;67819;51.972;5.678;2024-01-11T07:05:38;-3.6;66.6
78522;SHT31;67819;51.972;5.678;2024-01-11T07:08:08;-3.6;66.7
78522;SHT31;67819;51.972;5.678;2024-01-11T07:10:37;-3.7;67.0
78522;SHT31;67819;51.972;5.678;2024-01-11T07:13:06;-3.7;67.2
78522;SHT31;67819;51.972;5.678;2024-01-11T07:15:38;-3.7;67.4
78522;SHT31;67819;51.972;5.678;2024-01-11T07:18:08;-3.8;67.7
78522;SHT31;67819;51.972;5.678;2024-01-11T07:20:37;-3.8;67.7
78522;SHT31;67819;51.972;5.678;2024-01-11T07:23:05;-3.8;67.8
78522;SHT31;67819;51.972;5.678;2024-01-11T07:25:34;-3.7;68.1
78522;SHT31;67819;51.972;5.678;2024-01-11T07:28:03;-3.7;68.0
78522;SHT31;67819;51.972;5.678;2024-01-11T07:30:31;-3.6;67.9
78522;SHT31;67819;51.972;5.678;2024-01-11T07:33:00;-3.6;67.3
78522;SHT31;67819;51.972;5.678;2024-01-11T07:35:28;-3.5;67.1
78522;SHT31;67819;51.972;5.678;2024-01-11T07:37:57;-3.5;67.0
78522;SHT31;67819;51.972;5.678;2024-01-11T07:40:28;-3.4;67.4
78522;SHT31;67819;51.972;5.678;2024-01-11T07:42:56;-3.4;67.1
78522;SHT31;67819;51.972;5.678;2024-01-11T07:45:25;-3.3;66.6
78522;SHT31;67819;51.972;5.678;2024-01-11T07:47:53;-3.2;66.1
78522;SHT31;67819;51.972;5.678;2024-01-11T07:50:23;-3.2;65.8
78522;SHT31;67819;51.972;5.678;2024-01-11T07:52:51;-3.2;65.6
78522;SHT31;67819;51.972;5.678;2024-01-11T07:55:21;-3.2;65.4
78522;SHT31;67819;51.972;5.678;2024-01-11T07:57:50;-3.2;65.0
78522;SHT31;67819;51.972;5.678;2024-01-11T08:00:18;-3.2;64.9
78522;SHT31;67819;51.972;5.678;2024-01-11T08:02:47;-3.2;65.3
78522;SHT31;67819;51.972;5.678;2024-01-11T08:05:16;-3.3;65.6
78522;SHT31;67819;51.972;5.678;2024-01-11T08:07:44;-3.3;65.6
78522;SHT31;67819;51.972;5.678;2024-01-11T08:10:13;-3.3;65.8
78522;SHT31;67819;51.972;5.678;2024-01-11T08:12:41;-3.3;66.2
78522;SHT31;67819;51.972;5.678;2024-01-11T08:15:10;-3.3;66.2
78522;SHT31;67819;51.972;5.678;2024-01-11T08:17:46;-3.3;66.2
78522;SHT31;67819;51.972;5.678;2024-01-11T08:20:15;-3.3;66.2
78522;SHT31;67819;51.972;5.678;2024-01-11T08:22:43;-3.3;65.9
78522;SHT31;67819;51.972;5.678;2024-01-11T08:25:13;-3.3;66.3
78522;SHT31;67819;51.972;5.678;2024-01-11T08:27:41;-3.4;66.7
78522;SHT31;67819;51.972;5.678;2024-01-11T08:30:10;-3.3;66.8
78522;SHT31;67819;51.972;5.678;2024-01-11T08:32:39;-3.3;66.7
78522;SHT31;67819;51.972;5.678;2024-01-11T08:35:09;-3.3;66.7
78522;SHT31;67819;51.972;5.678;2024-01-11T08:37:38;-3.3;66.6
78522;SHT31;67819;51.972;5.678;2024-01-11T08:40:08;-3.3;66.6
78522;SHT31;67819;51.972;5.678;2024-01-11T08:42:37;-3.3;66.4
78522;SHT31;67819;51.972;5.678;2024-01-11T08:45:08;-3.3;66.6
78522;SHT31;67819;51.972;5.678;2024-01-11T08:47:39;-3.3;66.6
78522;SHT31;67819;51.972;5.678;2024-01-11T08:50:08;-3.3;66.9
78522;SHT31;67819;51.972;5.678;2024-01-11T08:52:41;-3.4;67.4
78522;SHT31;67819;51.972;5.678;2024-01-11T08:55:10;-3.3;67.6
78522;SHT31;67819;51.972;5.678;2024-01-11T08:57:39;-3.3;67.4
78522;SHT31;67819;51.972;5.678;2024-01-11T09:00:08;-3.3;67.3
78522;SHT31;67819;51.972;5.678;2024-01-11T09:02:37;-3.3;67.3
78522;SHT31;67819;51.972;5.678;2024-01-11T09:05:08;-3.3;67.5
78522;SHT31;67819;51.972;5.678;2024-01-11T09:07:37;-3.2;67.4
78522;SHT31;67819;51.972;5.678;2024-01-11T09:10:06;-3.2;67.1
78522;SHT31;67819;51.972;5.678;2024-01-11T09:12:37;-3.1;66.7
78522;SHT31;67819;51.972;5.678;2024-01-11T09:15:07;-3.1;66.7
78522;SHT31;67819;51.972;5.678;2024-01-11T09:17:36;-3.0;66.5
78522;SHT31;67819;51.972;5.678;2024-01-11T09:20:05;-3.0;66.3
78522;SHT31;67819;51.972;5.678;2024-01-11T09:22:34;-2.9;66.0
78522;SHT31;67819;51.972;5.678;2024-01-11T09:25:03;-2.9;66.0
78522;SHT31;67819;51.972;5.678;2024-01-11T09:27:33;-2.8;66.1
78522;SHT31;67819;51.972;5.678;2024-01-11T09:30:02;-2.7;65.9
78522;SHT31;67819;51.972;5.678;2024-01-11T09:32:31;-2.7;65.6
78522;SHT31;67819;51.972;5.678;2024-01-11T09:34:59;-2.6;65.6
78522;SHT31;67819;51.972;5.678;2024-01-11T09:37:27;-2.5;65.1
78522;SHT31;67819;51.972;5.678;2024-01-11T09:39:56;-2.4;65.0
78522;SHT31;67819;51.972;5.678;2024-01-11T09:42:29;-2.4;65.0
78522;SHT31;67819;51.972;5.678;2024-01-11T09:45:02;-2.3;64.8
78522;SHT31;67819;51.972;5.678;2024-01-11T09:47:36;-2.2;64.9
78522;SHT31;67819;51.972;5.678;2024-01-11T09:50:05;-2.2;64.6
78522;SHT31;67819;51.972;5.678;2024-01-11T09:52:35;-2.1;64.5
78522;SHT31;67819;51.972;5.678;2024-01-11T09:55:05;-2.1;64.8
78522;SHT31;67819;51.972;5.678;2024-01-11T09:57:40;-2.0;64.8
78522;SHT31;67819;51.972;5.678;2024-01-11T10:00:13;-2.0;65.1
78522;SHT31;67819;51.972;5.678;2024-01-11T10:02:45;-1.9;65.4
78522;SHT31;67819;51.972;5.678;2024-01-11T10:05:15;-1.9;65.2
78522;SHT31;67819;51.972;5.678;2024-01-11T10:07:45;-1.8;65.7
78522;SHT31;67819;51.972;5.678;2024-01-11T10:10:14;-1.8;65.8
78522;SHT31;67819;51.972;5.678;2024-01-11T10:12:43;-1.7;66.1
78522;SHT31;67819;51.972;5.678;2024-01-11T10:15:12;-1.7;66.3
78522;SHT31;67819;51.972;5.678;2024-01-11T10:17:43;-1.6;66.5
78522;SHT31;67819;51.972;5.678;2024-01-11T10:20:13;-1.5;66.9
78522;SHT31;67819;51.972;5.678;2024-01-11T10:22:43;-1.5;67.0
78522;SHT31;67819;51.972;5.678;2024-01-11T10:25:15;-1.4;67.4
78522;SHT31;67819;51.972;5.678;2024-01-11T10:27:45;-1.3;67.5
78522;SHT31;67819;51.972;5.678;2024-01-11T10:30:15;-1.3;67.6
78522;SHT31;67819;51.972;5.678;2024-01-11T10:32:46;-1.2;68.1
78522;SHT31;67819;51.972;5.678;2024-01-11T10:35:16;-1.2;68.3
78522;SHT31;67819;51.972;5.678;2024-01-11T10:37:49;-1.1;68.8
78522;SHT31;67819;51.972;5.678;2024-01-11T10:40:20;-1.1;69.2
78522;SHT31;67819;51.972;5.678;2024-01-11T10:42:52;-1.0;69.5
78522;SHT31;67819;51.972;5.678;2024-01-11T10:45:22;-0.9;70.4
78522;SHT31;67819;51.972;5.678;2024-01-11T10:47:56;-0.9;71.4
78522;SHT31;67819;51.972;5.678;2024-01-11T10:50:25;-0.9;72.2
78522;SHT31;67819;51.972;5.678;2024-01-11T10:53:28;-0.8;73.2
78522;SHT31;67819;51.972;5.678;2024-01-11T10:55:59;-0.8;74.4
78522;SHT31;67819;51.972;5.678;2024-01-11T10:58:28;-0.7;75.2
78522;SHT31;67819;51.972;5.678;2024-01-11T11:01:01;-0.7;75.8
78522;SHT31;67819;51.972;5.678;2024-01-11T11:03:31;-0.6;76.1
78522;SHT31;67819;51.972;5.678;2024-01-11T11:06:02;-0.6;76.2
78522;SHT31;67819;51.972;5.678;2024-01-11T11:08:33;-0.6;76.5
78522;SHT31;67819;51.972;5.678;2024-01-11T11:11:04;-0.5;76.8
78522;SHT31;67819;51.972;5.678;2024-01-11T11:13:34;-0.5;77.4
78522;SHT31;67819;51.972;5.678;2024-01-11T11:16:04;-0.4;78.0
78522;SHT31;67819;51.972;5.678;2024-01-11T11:18:34;-0.4;78.3
78522;SHT31;67819;51.972;5.678;2024-01-11T11:21:08;-0.3;78.6
78522;SHT31;67819;51.972;5.678;2024-01-11T11:23:40;-0.3;78.9
78522;SHT31;67819;51.972;5.678;2024-01-11T11:26:14;-0.2;78.8
78522;SHT31;67819;51.972;5.678;2024-01-11T11:28:43;-0.1;78.9
78522;SHT31;67819;51.972;5.678;2024-01-11T11:31:12;0.0;78.7
78522;SHT31;67819;51.972;5.678;2024-01-11T11:33:41;0.1;78.5
78522;SHT31;67819;51.972;5.678;2024-01-11T11:36:12;0.3;78.1
78522;SHT31;67819;51.972;5.678;2024-01-11T11:38:41;0.4;77.4
78522;SHT31;67819;51.972;5.678;2024-01-11T11:41:11;0.6;76.7
78522;SHT31;67819;51.972;5.678;2024-01-11T11:43:40;0.7;76.5
78522;SHT31;67819;51.972;5.678;2024-01-11T11:46:10;0.8;76.1
78522;SHT31;67819;51.972;5.678;2024-01-11T11:48:55;0.9;75.8
78522;SHT31;67819;51.972;5.678;2024-01-11T11:51:26;1.1;75.3
78522;SHT31;67819;51.972;5.678;2024-01-11T11:53:55;1.2;74.9
78522;SHT31;67819;51.972;5.678;2024-01-11T11:56:27;1.3;74.4
78522;SHT31;67819;51.972;5.678;2024-01-11T11:58:57;1.3;74.3
78522;SHT31;67819;51.972;5.678;2024-01-11T12:01:26;1.4;74.0
78522;SHT31;67819;51.972;5.678;2024-01-11T12:03:55;1.4;74.0
78522;SHT31;67819;51.972;5.678;2024-01-11T12:06:24;1.5;73.7
78522;SHT31;67819;51.972;5.678;2024-01-11T12:08:54;1.5;73.6
78522;SHT31;67819;51.972;5.678;2024-01-11T12:11:23;1.6;73.4
78522;SHT31;67819;51.972;5.678;2024-01-11T12:13:54;1.6;73.4
78522;SHT31;67819;51.972;5.678;2024-01-11T12:16:23;1.7;73.5
78522;SHT31;67819;51.972;5.678;2024-01-11T12:18:54;1.8;73.5
78522;SHT31;67819;51.972;5.678;2024-01-11T12:21:24;1.9;72.9
78522;SHT31;67819;51.972;5.678;2024-01-11T12:23:54;2.0;72.5
78522;SHT31;67819;51.972;5.678;2024-01-11T12:26:23;2.0;72.7
78522;SHT31;67819;51.972;5.678;2024-01-11T12:28:53;2.1;72.3
78522;SHT31;67819;51.972;5.678;2024-01-11T12:31:22;2.2;71.8
78522;SHT31;67819;51.972;5.678;2024-01-11T12:33:52;2.3;71.3
78522;SHT31;67819;51.972;5.678;2024-01-11T12:36:23;2.4;71.0
78522;SHT31;67819;51.972;5.678;2024-01-11T12:38:52;2.5;71.0
78522;SHT31;67819;51.972;5.678;2024-01-11T12:41:22;2.6;70.9
78522;SHT31;67819;51.972;5.678;2024-01-11T12:43:51;2.7;70.6
78522;SHT31;67819;51.972;5.678;2024-01-11T12:46:20;2.7;70.3
78522;SHT31;67819;51.972;5.678;2024-01-11T12:48:49;2.7;70.1
78522;SHT31;67819;51.972;5.678;2024-01-11T12:51:18;2.8;70.1
78522;SHT31;67819;51.972;5.678;2024-01-11T12:53:47;2.8;70.1
78522;SHT31;67819;51.972;5.678;2024-01-11T12:56:16;2.9;69.8
78522;SHT31;67819;51.972;5.678;2024-01-11T12:58:47;3.0;69.7
78522;SHT31;67819;51.972;5.678;2024-01-11T13:01:27;3.1;69.4
78522;SHT31;67819;51.972;5.678;2024-01-11T13:03:56;3.2;69.2
78522;SHT31;67819;51.972;5.678;2024-01-11T13:06:24;3.3;68.8
78522;SHT31;67819;51.972;5.678;2024-01-11T13:08:53;3.4;68.7
78522;SHT31;67819;51.972;5.678;2024-01-11T13:11:22;3.4;68.2
78522;SHT31;67819;51.972;5.678;2024-01-11T13:13:51;3.5;68.1
78522;SHT31;67819;51.972;5.678;2024-01-11T13:16:20;3.6;67.8
78522;SHT31;67819;51.972;5.678;2024-01-11T13:18:50;3.7;67.7
78522;SHT31;67819;51.972;5.678;2024-01-11T13:21:19;3.7;67.5
78522;SHT31;67819;51.972;5.678;2024-01-11T13:23:48;3.8;67.3
78522;SHT31;67819;51.972;5.678;2024-01-11T13:26:16;3.9;67.1
78522;SHT31;67819;51.972;5.678;2024-01-11T13:28:46;3.9;66.9
78522;SHT31;67819;51.972;5.678;2024-01-11T13:31:14;4.0;66.7
78522;SHT31;67819;51.972;5.678;2024-01-11T13:33:45;4.0;66.6
78522;SHT31;67819;51.972;5.678;2024-01-11T13:36:15;4.0;66.4
78522;SHT31;67819;51.972;5.678;2024-01-11T13:38:44;4.0;66.3
78522;SHT31;67819;51.972;5.678;2024-01-11T13:41:12;4.1;66.2
78522;SHT31;67819;51.972;5.678;2024-01-11T13:43:41;4.1;66.2
78522;SHT31;67819;51.972;5.678;2024-01-11T13:46:09;4.1;66.3
78522;SHT31;67819;51.972;5.678;2024-01-11T13:48:38;4.1;66.1
78522;SHT31;67819;51.972;5.678;2024-01-11T13:51:09;4.2;66.0
78522;SHT31;67819;51.972;5.678;2024-01-11T13:53:39;4.2;66.2
78522;SHT31;67819;51.972;5.678;2024-01-11T13:56:08;4.2;66.1
78522;SHT31;67819;51.972;5.678;2024-01-11T13:58:37;4.2;66.1
78522;SHT31;67819;51.972;5.678;2024-01-11T14:01:05;4.3;65.9
78522;SHT31;67819;51.972;5.678;2024-01-11T14:03:34;4.3;65.7
78522;SHT31;67819;51.972;5.678;2024-01-11T14:06:03;4.3;65.6
78522;SHT31;67819;51.972;5.678;2024-01-11T14:08:31;4.3;65.5
78522;SHT31;67819;51.972;5.678;2024-01-11T14:11:00;4.3;65.7
78522;SHT31;67819;51.972;5.678;2024-01-11T14:13:28;4.3;65.7
78522;SHT31;67819;51.972;5.678;2024-01-11T14:15:57;4.3;65.7
78522;SHT31;67819;51.972;5.678;2024-01-11T14:18:25;4.3;65.8
78522;SHT31;67819;51.972;5.678;2024-01-11T14:20:56;4.2;65.9
78522;SHT31;67819;51.972;5.678;2024-01-11T14:23:24;4.2;66.0
78522;SHT31;67819;51.972;5.678;2024-01-11T14:25:53;4.2;66.1
78522;SHT31;67819;51.972;5.678;2024-01-11T14:28:23;4.2;66.0
78522;SHT31;67819;51.972;5.678;2024-01-11T14:30:51;4.2;66.1
78522;SHT31;67819;51.972;5.678;2024-01-11T14:33:20;4.2;66.2
78522;SHT31;67819;51.972;5.678;2024-01-11T14:35:48;4.2;66.2
78522;SHT31;67819;51.972;5.678;2024-01-11T14:38:17;4.2;66.2
78522;SHT31;67819;51.972;5.678;2024-01-11T14:40:45;4.2;66.4
78522;SHT31;67819;51.972;5.678;2024-01-11T14:43:14;4.2;66.4
78522;SHT31;67819;51.972;5.678;2024-01-11T14:45:42;4.2;66.4
78522;SHT31;67819;51.972;5.678;2024-01-11T14:48:11;4.2;66.7
78522;SHT31;67819;51.972;5.678;2024-01-11T14:50:40;4.2;66.8
78522;SHT31;67819;51.972;5.678;2024-01-11T14:53:09;4.1;67.0
78522;SHT31;67819;51.972;5.678;2024-01-11T14:55:38;4.1;67.0
78522;SHT31;67819;51.972;5.678;2024-01-11T14:58:06;4.1;67.0
78522;SHT31;67819;51.972;5.678;2024-01-11T15:00:35;4.1;67.1
78522;SHT31;67819;51.972;5.678;2024-01-11T15:03:04;4.1;67.3
78522;SHT31;67819;51.972;5.678;2024-01-11T15:05:33;4.1;67.4
78522;SHT31;67819;51.972;5.678;2024-01-11T15:08:02;4.1;67.7
78522;SHT31;67819;51.972;5.678;2024-01-11T15:10:31;4.1;67.8
78522;SHT31;67819;51.972;5.678;2024-01-11T15:13:00;4.1;68.1
78522;SHT31;67819;51.972;5.678;2024-01-11T15:15:28;4.1;68.2
78522;SHT31;67819;51.972;5.678;2024-01-11T15:17:57;4.1;68.1
78522;SHT31;67819;51.972;5.678;2024-01-11T15:20:26;4.1;68.3
78522;SHT31;67819;51.972;5.678;2024-01-11T15:22:54;4.1;68.3
78522;SHT31;67819;51.972;5.678;2024-01-11T15:25:23;4.1;68.6
78522;SHT31;67819;51.972;5.678;2024-01-11T15:27:53;4.1;68.7
78522;SHT31;67819;51.972;5.678;2024-01-11T15:30:21;4.1;68.6
78522;SHT31;67819;51.972;5.678;2024-01-11T15:32:50;4.1;68.8
78522;SHT31;67819;51.972;5.678;2024-01-11T15:35:18;4.1;68.8
78522;SHT31;67819;51.972;5.678;2024-01-11T15:37:47;4.1;68.9
78522;SHT31;67819;51.972;5.678;2024-01-11T15:40:16;4.1;69.1
78522;SHT31;67819;51.972;5.678;2024-01-11T15:42:45;4.1;69.3
78522;SHT31;67819;51.972;5.678;2024-01-11T15:45:15;4.2;69.2
78522;SHT31;67819;51.972;5.678;2024-01-11T15:47:44;4.2;69.2
78522;SHT31;67819;51.972;5.678;2024-01-11T15:50:14;4.2;69.3
78522;SHT31;67819;51.972;5.678;2024-01-11T15:52:43;4.2;69.3
78522;SHT31;67819;51.972;5.678;2024-01-11T15:55:11;4.2;69.5
78522;SHT31;67819;51.972;5.678;2024-01-11T15:57:40;4.2;69.3
78522;SHT31;67819;51.972;5.678;2024-01-11T16:00:09;4.3;69.4
78522;SHT31;67819;51.972;5.678;2024-01-11T16:02:38;4.3;69.6
78522;SHT31;67819;51.972;5.678;2024-01-11T16:05:09;4.3;69.5
78522;SHT31;67819;51.972;5.678;2024-01-11T16:07:38;4.3;69.6
78522;SHT31;67819;51.972;5.678;2024-01-11T16:10:08;4.3;69.3
78522;SHT31;67819;51.972;5.678;2024-01-11T16:12:37;4.3;69.5
78522;SHT31;67819;51.972;5.678;2024-01-11T16:15:06;4.3;69.4
78522;SHT31;67819;51.972;5.678;2024-01-11T16:17:36;4.3;69.5
78522;SHT31;67819;51.972;5.678;2024-01-11T16:20:05;4.3;69.5